John G — WDF2677 — position and weather

sailwx.info

Track history (hours):
 
Tides and Currents Weather Stations Pressure Air Temp Water Temp Dewpoint Dewpoint Depression Visibility Wind Speed Wind Dir Waves Ship Positions

John G

Owner: Marquette Transportation Company Offshore LLC, Jefferson, LA. More information available from US FCC via Universal Licensing System and Coast Guard Vessel Documentation Center.

Last reported at 2014-Nov-22 12:25 UTC. Time now 2014-Nov-23 04:53 UTC.
Position N 29°59' W 090°50'.

Length 30 m; draft 3.3 m.

Type: Towing. MMSI: 367009680.

Date/timePositionNaut miles runAvg speedWind from/ knotsBaromVisibWave heightAir tempDewpointWater temp
2014-Nov-22 12:25N 29°59' W 090°50'12 3.7
2014-Nov-22 09:14N 30°02' W 090°37'12 3.1
2014-Nov-22 05:17N 29°57' W 090°24'20 1.6
2014-Nov-21 16:29N 29°56' W 090°00'0 0.0
2014-Nov-21 15:11N 29°56' W 090°00'0 0.0
2014-Nov-21 14:26N 29°56' W 090°00'0 0.0
2014-Nov-21 13:12N 29°56' W 090°00'0 0.0
2014-Nov-21 12:23N 29°56' W 090°00'0 0.0
2014-Nov-21 11:33N 29°56' W 090°00'0 0.0
2014-Nov-21 10:30N 29°56' W 090°00'0 0.0
2014-Nov-21 09:32N 29°56' W 090°00'0 0.0
2014-Nov-21 08:33N 29°56' W 090°00'0 0.0
2014-Nov-21 07:30N 29°56' W 090°00'0 0.0
2014-Nov-21 06:33N 29°56' W 090°00'0 0.0
2014-Nov-21 05:28N 29°56' W 090°00'0 0.0
2014-Nov-21 04:31N 29°56' W 090°00'0 0.0
2014-Nov-21 03:32N 29°56' W 090°00'1 0.7
2014-Nov-21 02:33N 29°56' W 089°60'1 1.3
2014-Nov-21 01:27N 29°56' W 089°58'0 0.0
2014-Nov-21 00:25N 29°56' W 089°58'0 0.0
2014-Nov-20 23:33N 29°56' W 089°58'0 0.0
2014-Nov-20 22:32N 29°56' W 089°58'3 3.1
2014-Nov-20 21:32N 29°57' W 090°01'6 5.7
2014-Nov-20 20:29N 29°55' W 090°08'  
2014-Nov-16 11:15N 29°55' W 089°59'0 0.0
2014-Nov-16 09:30N 29°55' W 089°59'0 0.0
2014-Nov-16 08:16N 29°55' W 089°59'0 0.0
2014-Nov-16 07:33N 29°55' W 089°59'1 0.4
2014-Nov-16 06:10N 29°56' W 089°58'  
Track history (hours):
 
Tides and Currents Weather Stations Pressure Air Temp Water Temp Dewpoint Dewpoint Depression Visibility Wind Speed Wind Dir Waves Ship Positions

John G

Owner: Marquette Transportation Company Offshore LLC, Jefferson, LA. More information available from US FCC via Universal Licensing System and Coast Guard Vessel Documentation Center.

Last reported at 2014-Nov-22 12:25 UTC. Time now 2014-Nov-23 04:53 UTC.
Position N 29°59' W 090°50'.

Length 30 m; draft 3.3 m.

Type: Towing. MMSI: 367009680.

Date/timePositionNaut miles runAvg speedWind from/ knotsBaromVisibWave heightAir tempDewpointWater temp
2014-Nov-22 12:25N 29°59' W 090°50'12 3.7
2014-Nov-22 09:14N 30°02' W 090°37'12 3.1
2014-Nov-22 05:17N 29°57' W 090°24'20 1.6
2014-Nov-21 16:29N 29°56' W 090°00'0 0.0
2014-Nov-21 15:11N 29°56' W 090°00'0 0.0
2014-Nov-21 14:26N 29°56' W 090°00'0 0.0
2014-Nov-21 13:12N 29°56' W 090°00'0 0.0
2014-Nov-21 12:23N 29°56' W 090°00'0 0.0
2014-Nov-21 11:33N 29°56' W 090°00'0 0.0
2014-Nov-21 10:30N 29°56' W 090°00'0 0.0
2014-Nov-21 09:32N 29°56' W 090°00'0 0.0
2014-Nov-21 08:33N 29°56' W 090°00'0 0.0
2014-Nov-21 07:30N 29°56' W 090°00'0 0.0
2014-Nov-21 06:33N 29°56' W 090°00'0 0.0
2014-Nov-21 05:28N 29°56' W 090°00'0 0.0
2014-Nov-21 04:31N 29°56' W 090°00'0 0.0
2014-Nov-21 03:32N 29°56' W 090°00'1 0.7
2014-Nov-21 02:33N 29°56' W 089°60'1 1.3
2014-Nov-21 01:27N 29°56' W 089°58'0 0.0
2014-Nov-21 00:25N 29°56' W 089°58'0 0.0
2014-Nov-20 23:33N 29°56' W 089°58'0 0.0
2014-Nov-20 22:32N 29°56' W 089°58'3 3.1
2014-Nov-20 21:32N 29°57' W 090°01'6 5.7
2014-Nov-20 20:29N 29°55' W 090°08'  
2014-Nov-16 11:15N 29°55' W 089°59'0 0.0
2014-Nov-16 09:30N 29°55' W 089°59'0 0.0
2014-Nov-16 08:16N 29°55' W 089°59'0 0.0
2014-Nov-16 07:33N 29°55' W 089°59'1 0.4
2014-Nov-16 06:10N 29°56' W 089°58'  

Dump ship's entire track history